sensor_id;sensor_type;location;lat;lon;timestamp;P1;P2;P0
60245;PMS5003;46107;53.356;-1.524;2023-04-08T00:00:38;23;21;
60245;PMS5003;46107;53.356;-1.524;2023-04-08T00:03:06;27;27;
60245;PMS5003;46107;53.356;-1.524;2023-04-08T00:05:33;23;20;
60245;PMS5003;46107;53.356;-1.524;2023-04-08T00:08:01;25;23;
60245;PMS5003;46107;53.356;-1.524;2023-04-08T00:10:29;24;24;
60245;PMS5003;46107;53.356;-1.524;2023-04-08T00:12:56;26;23;
60245;PMS5003;46107;53.356;-1.524;2023-04-08T00:15:24;26;23;
60245;PMS5003;46107;53.356;-1.524;2023-04-08T00:17:52;28;25;
60245;PMS5003;46107;53.356;-1.524;2023-04-08T00:20:19;24;20;
60245;PMS5003;46107;53.356;-1.524;2023-04-08T00:22:48;26;24;
60245;PMS5003;46107;53.356;-1.524;2023-04-08T00:25:16;19;18;
60245;PMS5003;46107;53.356;-1.524;2023-04-08T00:27:44;25;23;
60245;PMS5003;46107;53.356;-1.524;2023-04-08T00:30:12;22;21;
60245;PMS5003;46107;53.356;-1.524;2023-04-08T00:32:40;21;18;
60245;PMS5003;46107;53.356;-1.524;2023-04-08T00:35:08;29;29;
60245;PMS5003;46107;53.356;-1.524;2023-04-08T00:37:35;29;22;
60245;PMS5003;46107;53.356;-1.524;2023-04-08T00:40:03;24;22;
60245;PMS5003;46107;53.356;-1.524;2023-04-08T00:42:32;29;25;
60245;PMS5003;46107;53.356;-1.524;2023-04-08T00:45:00;25;23;
60245;PMS5003;46107;53.356;-1.524;2023-04-08T00:47:28;25;24;
60245;PMS5003;46107;53.356;-1.524;2023-04-08T00:49:56;22;21;
60245;PMS5003;46107;53.356;-1.524;2023-04-08T00:52:23;27;22;
60245;PMS5003;46107;53.356;-1.524;2023-04-08T00:54:51;25;24;
60245;PMS5003;46107;53.356;-1.524;2023-04-08T00:57:19;19;18;
60245;PMS5003;46107;53.356;-1.524;2023-04-08T00:59:46;23;23;
60245;PMS5003;46107;53.356;-1.524;2023-04-08T01:02:16;24;22;
60245;PMS5003;46107;53.356;-1.524;2023-04-08T01:04:52;20;20;
60245;PMS5003;46107;53.356;-1.524;2023-04-08T01:07:27;24;21;
60245;PMS5003;46107;53.356;-1.524;2023-04-08T01:09:58;23;21;
60245;PMS5003;46107;53.356;-1.524;2023-04-08T01:12:29;22;18;
60245;PMS5003;46107;53.356;-1.524;2023-04-08T01:14:59;21;19;
60245;PMS5003;46107;53.356;-1.524;2023-04-08T01:17:30;20;19;
60245;PMS5003;46107;53.356;-1.524;2023-04-08T01:19:59;17;15;
60245;PMS5003;46107;53.356;-1.524;2023-04-08T01:22:32;20;17;
60245;PMS5003;46107;53.356;-1.524;2023-04-08T01:25:09;21;19;
60245;PMS5003;46107;53.356;-1.524;2023-04-08T01:27:42;21;18;
60245;PMS5003;46107;53.356;-1.524;2023-04-08T01:30:10;24;22;
60245;PMS5003;46107;53.356;-1.524;2023-04-08T01:32:40;22;21;
60245;PMS5003;46107;53.356;-1.524;2023-04-08T01:35:10;20;19;
60245;PMS5003;46107;53.356;-1.524;2023-04-08T01:37:41;22;18;
60245;PMS5003;46107;53.356;-1.524;2023-04-08T01:40:10;20;19;
60245;PMS5003;46107;53.356;-1.524;2023-04-08T01:42:39;20;18;
60245;PMS5003;46107;53.356;-1.524;2023-04-08T01:45:08;18;17;
60245;PMS5003;46107;53.356;-1.524;2023-04-08T01:47:36;19;15;
60245;PMS5003;46107;53.356;-1.524;2023-04-08T01:50:05;17;17;
60245;PMS5003;46107;53.356;-1.524;2023-04-08T01:52:34;19;17;
60245;PMS5003;46107;53.356;-1.524;2023-04-08T01:55:04;18;16;
60245;PMS5003;46107;53.356;-1.524;2023-04-08T01:57:34;18;16;
60245;PMS5003;46107;53.356;-1.524;2023-04-08T02:00:05;16;15;
60245;PMS5003;46107;53.356;-1.524;2023-04-08T02:02:35;15;13;
60245;PMS5003;46107;53.356;-1.524;2023-04-08T02:05:07;18;14;
60245;PMS5003;46107;53.356;-1.524;2023-04-08T02:07:35;17;14;
60245;PMS5003;46107;53.356;-1.524;2023-04-08T02:10:02;17;15;
60245;PMS5003;46107;53.356;-1.524;2023-04-08T02:12:31;17;14;
60245;PMS5003;46107;53.356;-1.524;2023-04-08T02:14:59;21;18;
60245;PMS5003;46107;53.356;-1.524;2023-04-08T02:17:28;22;15;
60245;PMS5003;46107;53.356;-1.524;2023-04-08T02:20:04;17;15;
60245;PMS5003;46107;53.356;-1.524;2023-04-08T02:22:37;19;16;
60245;PMS5003;46107;53.356;-1.524;2023-04-08T02:25:10;17;15;
60245;PMS5003;46107;53.356;-1.524;2023-04-08T02:27:40;15;13;
60245;PMS5003;46107;53.356;-1.524;2023-04-08T02:30:10;19;16;
60245;PMS5003;46107;53.356;-1.524;2023-04-08T02:32:39;15;14;
60245;PMS5003;46107;53.356;-1.524;2023-04-08T02:35:08;14;14;
60245;PMS5003;46107;53.356;-1.524;2023-04-08T02:37:38;17;15;
60245;PMS5003;46107;53.356;-1.524;2023-04-08T02:40:21;18;17;
60245;PMS5003;46107;53.356;-1.524;2023-04-08T02:42:49;15;12;
60245;PMS5003;46107;53.356;-1.524;2023-04-08T02:45:18;13;12;
60245;PMS5003;46107;53.356;-1.524;2023-04-08T02:47:46;18;16;
60245;PMS5003;46107;53.356;-1.524;2023-04-08T02:50:14;16;14;
60245;PMS5003;46107;53.356;-1.524;2023-04-08T02:52:41;18;17;
60245;PMS5003;46107;53.356;-1.524;2023-04-08T02:55:09;19;15;
60245;PMS5003;46107;53.356;-1.524;2023-04-08T02:57:38;19;16;
60245;PMS5003;46107;53.356;-1.524;2023-04-08T03:00:06;16;14;
60245;PMS5003;46107;53.356;-1.524;2023-04-08T03:02:35;15;13;
60245;PMS5003;46107;53.356;-1.524;2023-04-08T03:05:03;14;14;
60245;PMS5003;46107;53.356;-1.524;2023-04-08T03:07:31;17;17;
60245;PMS5003;46107;53.356;-1.524;2023-04-08T03:10:00;18;14;
60245;PMS5003;46107;53.356;-1.524;2023-04-08T03:12:28;17;14;
60245;PMS5003;46107;53.356;-1.524;2023-04-08T03:14:56;18;18;
60245;PMS5003;46107;53.356;-1.524;2023-04-08T03:17:24;21;17;
60245;PMS5003;46107;53.356;-1.524;2023-04-08T03:19:51;16;14;
60245;PMS5003;46107;53.356;-1.524;2023-04-08T03:22:19;17;15;
60245;PMS5003;46107;53.356;-1.524;2023-04-08T03:24:46;20;17;
60245;PMS5003;46107;53.356;-1.524;2023-04-08T03:27:14;17;15;
60245;PMS5003;46107;53.356;-1.524;2023-04-08T03:29:41;19;17;
60245;PMS5003;46107;53.356;-1.524;2023-04-08T03:32:09;19;16;
60245;PMS5003;46107;53.356;-1.524;2023-04-08T03:34:37;23;18;
60245;PMS5003;46107;53.356;-1.524;2023-04-08T03:37:04;18;16;
60245;PMS5003;46107;53.356;-1.524;2023-04-08T03:39:33;19;18;
60245;PMS5003;46107;53.356;-1.524;2023-04-08T03:42:01;16;16;
60245;PMS5003;46107;53.356;-1.524;2023-04-08T03:44:29;18;17;
60245;PMS5003;46107;53.356;-1.524;2023-04-08T03:46:57;19;18;
60245;PMS5003;46107;53.356;-1.524;2023-04-08T03:49:23;19;18;
60245;PMS5003;46107;53.356;-1.524;2023-04-08T03:51:51;17;14;
60245;PMS5003;46107;53.356;-1.524;2023-04-08T03:54:19;21;18;
60245;PMS5003;46107;53.356;-1.524;2023-04-08T03:56:47;21;19;
60245;PMS5003;46107;53.356;-1.524;2023-04-08T03:59:15;19;15;
60245;PMS5003;46107;53.356;-1.524;2023-04-08T04:01:43;23;18;
60245;PMS5003;46107;53.356;-1.524;2023-04-08T04:04:10;19;16;
60245;PMS5003;46107;53.356;-1.524;2023-04-08T04:06:37;18;17;
60245;PMS5003;46107;53.356;-1.524;2023-04-08T04:09:05;20;18;
60245;PMS5003;46107;53.356;-1.524;2023-04-08T04:11:33;18;17;
60245;PMS5003;46107;53.356;-1.524;2023-04-08T04:14:01;19;18;
60245;PMS5003;46107;53.356;-1.524;2023-04-08T04:16:29;18;15;
60245;PMS5003;46107;53.356;-1.524;2023-04-08T04:18:56;17;17;
60245;PMS5003;46107;53.356;-1.524;2023-04-08T04:21:24;21;16;
60245;PMS5003;46107;53.356;-1.524;2023-04-08T04:23:52;17;14;
60245;PMS5003;46107;53.356;-1.524;2023-04-08T04:26:19;19;16;
60245;PMS5003;46107;53.356;-1.524;2023-04-08T04:28:46;18;18;
60245;PMS5003;46107;53.356;-1.524;2023-04-08T04:31:17;21;17;
60245;PMS5003;46107;53.356;-1.524;2023-04-08T04:33:46;19;19;
60245;PMS5003;46107;53.356;-1.524;2023-04-08T04:36:13;19;18;
60245;PMS5003;46107;53.356;-1.524;2023-04-08T04:38:41;25;20;
60245;PMS5003;46107;53.356;-1.524;2023-04-08T04:41:08;19;17;
60245;PMS5003;46107;53.356;-1.524;2023-04-08T04:43:36;31;27;
60245;PMS5003;46107;53.356;-1.524;2023-04-08T04:46:04;32;27;
60245;PMS5003;46107;53.356;-1.524;2023-04-08T04:48:31;29;25;
60245;PMS5003;46107;53.356;-1.524;2023-04-08T04:50:59;31;28;
60245;PMS5003;46107;53.356;-1.524;2023-04-08T04:53:26;35;34;
60245;PMS5003;46107;53.356;-1.524;2023-04-08T04:55:54;30;26;
60245;PMS5003;46107;53.356;-1.524;2023-04-08T04:58:21;30;29;
60245;PMS5003;46107;53.356;-1.524;2023-04-08T05:00:49;38;32;
60245;PMS5003;46107;53.356;-1.524;2023-04-08T05:03:17;39;33;
60245;PMS5003;46107;53.356;-1.524;2023-04-08T05:05:47;33;33;
60245;PMS5003;46107;53.356;-1.524;2023-04-08T05:08:17;37;33;
60245;PMS5003;46107;53.356;-1.524;2023-04-08T05:10:45;42;37;
60245;PMS5003;46107;53.356;-1.524;2023-04-08T05:13:12;39;35;
60245;PMS5003;46107;53.356;-1.524;2023-04-08T05:15:40;34;31;
60245;PMS5003;46107;53.356;-1.524;2023-04-08T05:18:07;39;35;
60245;PMS5003;46107;53.356;-1.524;2023-04-08T05:20:36;35;35;
60245;PMS5003;46107;53.356;-1.524;2023-04-08T05:23:03;36;32;
60245;PMS5003;46107;53.356;-1.524;2023-04-08T05:25:31;39;35;
60245;PMS5003;46107;53.356;-1.524;2023-04-08T05:27:59;34;32;
60245;PMS5003;46107;53.356;-1.524;2023-04-08T05:30:26;37;33;
60245;PMS5003;46107;53.356;-1.524;2023-04-08T05:32:54;38;33;
60245;PMS5003;46107;53.356;-1.524;2023-04-08T05:35:22;36;33;
60245;PMS5003;46107;53.356;-1.524;2023-04-08T05:37:49;38;36;
60245;PMS5003;46107;53.356;-1.524;2023-04-08T05:40:16;37;34;
60245;PMS5003;46107;53.356;-1.524;2023-04-08T05:42:44;36;31;
60245;PMS5003;46107;53.356;-1.524;2023-04-08T05:45:12;34;32;
60245;PMS5003;46107;53.356;-1.524;2023-04-08T05:47:40;37;34;
60245;PMS5003;46107;53.356;-1.524;2023-04-08T05:50:08;32;29;
60245;PMS5003;46107;53.356;-1.524;2023-04-08T05:52:40;35;30;
60245;PMS5003;46107;53.356;-1.524;2023-04-08T05:55:08;31;27;
60245;PMS5003;46107;53.356;-1.524;2023-04-08T05:57:37;34;26;
60245;PMS5003;46107;53.356;-1.524;2023-04-08T06:00:06;33;29;
60245;PMS5003;46107;53.356;-1.524;2023-04-08T06:02:34;38;34;
60245;PMS5003;46107;53.356;-1.524;2023-04-08T06:05:02;33;29;
60245;PMS5003;46107;53.356;-1.524;2023-04-08T06:07:31;25;23;
60245;PMS5003;46107;53.356;-1.524;2023-04-08T06:10:00;24;24;
60245;PMS5003;46107;53.356;-1.524;2023-04-08T06:12:34;29;26;
60245;PMS5003;46107;53.356;-1.524;2023-04-08T06:15:01;28;24;
60245;PMS5003;46107;53.356;-1.524;2023-04-08T06:17:29;30;25;
60245;PMS5003;46107;53.356;-1.524;2023-04-08T06:19:56;29;23;
60245;PMS5003;46107;53.356;-1.524;2023-04-08T06:22:24;24;23;
60245;PMS5003;46107;53.356;-1.524;2023-04-08T06:24:52;29;27;
60245;PMS5003;46107;53.356;-1.524;2023-04-08T06:27:19;27;26;
60245;PMS5003;46107;53.356;-1.524;2023-04-08T06:29:47;22;21;
60245;PMS5003;46107;53.356;-1.524;2023-04-08T06:32:15;24;23;
60245;PMS5003;46107;53.356;-1.524;2023-04-08T06:34:43;26;24;
60245;PMS5003;46107;53.356;-1.524;2023-04-08T06:37:11;33;27;
60245;PMS5003;46107;53.356;-1.524;2023-04-08T06:39:39;38;35;
60245;PMS5003;46107;53.356;-1.524;2023-04-08T06:42:07;39;36;
60245;PMS5003;46107;53.356;-1.524;2023-04-08T06:44:34;43;36;
60245;PMS5003;46107;53.356;-1.524;2023-04-08T06:47:02;40;38;
60245;PMS5003;46107;53.356;-1.524;2023-04-08T06:49:29;41;36;
60245;PMS5003;46107;53.356;-1.524;2023-04-08T06:51:57;45;41;
60245;PMS5003;46107;53.356;-1.524;2023-04-08T06:54:25;40;37;
60245;PMS5003;46107;53.356;-1.524;2023-04-08T06:56:52;40;38;
60245;PMS5003;46107;53.356;-1.524;2023-04-08T06:59:20;40;33;
60245;PMS5003;46107;53.356;-1.524;2023-04-08T07:01:48;47;40;
60245;PMS5003;46107;53.356;-1.524;2023-04-08T07:04:16;43;38;
60245;PMS5003;46107;53.356;-1.524;2023-04-08T07:06:43;44;43;
60245;PMS5003;46107;53.356;-1.524;2023-04-08T07:09:11;49;43;
60245;PMS5003;46107;53.356;-1.524;2023-04-08T07:11:38;48;42;
60245;PMS5003;46107;53.356;-1.524;2023-04-08T07:14:06;49;39;
60245;PMS5003;46107;53.356;-1.524;2023-04-08T07:16:34;46;40;
60245;PMS5003;46107;53.356;-1.524;2023-04-08T07:19:02;48;41;
60245;PMS5003;46107;53.356;-1.524;2023-04-08T07:21:29;45;41;
60245;PMS5003;46107;53.356;-1.524;2023-04-08T07:23:57;43;38;
60245;PMS5003;46107;53.356;-1.524;2023-04-08T07:26:25;40;38;
60245;PMS5003;46107;53.356;-1.524;2023-04-08T07:28:52;38;35;
60245;PMS5003;46107;53.356;-1.524;2023-04-08T07:31:20;44;39;
60245;PMS5003;46107;53.356;-1.524;2023-04-08T07:33:48;43;35;
60245;PMS5003;46107;53.356;-1.524;2023-04-08T07:36:16;45;39;
60245;PMS5003;46107;53.356;-1.524;2023-04-08T07:38:43;39;36;
60245;PMS5003;46107;53.356;-1.524;2023-04-08T07:41:11;34;33;
60245;PMS5003;46107;53.356;-1.524;2023-04-08T07:43:39;36;31;
60245;PMS5003;46107;53.356;-1.524;2023-04-08T07:46:06;37;35;
60245;PMS5003;46107;53.356;-1.524;2023-04-08T07:48:34;37;29;
60245;PMS5003;46107;53.356;-1.524;2023-04-08T07:51:02;43;32;
60245;PMS5003;46107;53.356;-1.524;2023-04-08T07:53:31;38;34;
60245;PMS5003;46107;53.356;-1.524;2023-04-08T07:55:59;38;35;
60245;PMS5003;46107;53.356;-1.524;2023-04-08T07:58:27;33;29;
60245;PMS5003;46107;53.356;-1.524;2023-04-08T08:00:55;36;31;
60245;PMS5003;46107;53.356;-1.524;2023-04-08T08:03:24;32;32;
60245;PMS5003;46107;53.356;-1.524;2023-04-08T08:05:51;28;25;
60245;PMS5003;46107;53.356;-1.524;2023-04-08T08:08:19;36;30;
60245;PMS5003;46107;53.356;-1.524;2023-04-08T08:10:46;43;36;
60245;PMS5003;46107;53.356;-1.524;2023-04-08T08:13:14;38;32;
60245;PMS5003;46107;53.356;-1.524;2023-04-08T08:15:41;37;33;
60245;PMS5003;46107;53.356;-1.524;2023-04-08T08:18:08;36;33;
60245;PMS5003;46107;53.356;-1.524;2023-04-08T08:20:36;31;28;
60245;PMS5003;46107;53.356;-1.524;2023-04-08T08:23:04;27;27;
60245;PMS5003;46107;53.356;-1.524;2023-04-08T08:25:31;26;25;
60245;PMS5003;46107;53.356;-1.524;2023-04-08T08:27:59;26;24;
60245;PMS5003;46107;53.356;-1.524;2023-04-08T08:30:27;23;21;
60245;PMS5003;46107;53.356;-1.524;2023-04-08T08:32:55;26;23;
60245;PMS5003;46107;53.356;-1.524;2023-04-08T08:35:22;29;27;
60245;PMS5003;46107;53.356;-1.524;2023-04-08T08:37:51;31;29;
60245;PMS5003;46107;53.356;-1.524;2023-04-08T08:40:18;32;29;
60245;PMS5003;46107;53.356;-1.524;2023-04-08T08:42:48;32;30;
60245;PMS5003;46107;53.356;-1.524;2023-04-08T08:45:17;28;27;
60245;PMS5003;46107;53.356;-1.524;2023-04-08T08:47:45;26;24;
60245;PMS5003;46107;53.356;-1.524;2023-04-08T08:50:13;31;29;
60245;PMS5003;46107;53.356;-1.524;2023-04-08T08:52:47;26;26;
60245;PMS5003;46107;53.356;-1.524;2023-04-08T08:55:15;33;28;
60245;PMS5003;46107;53.356;-1.524;2023-04-08T08:57:44;32;26;
60245;PMS5003;46107;53.356;-1.524;2023-04-08T09:00:13;32;27;
60245;PMS5003;46107;53.356;-1.524;2023-04-08T09:02:41;29;29;
60245;PMS5003;46107;53.356;-1.524;2023-04-08T09:05:08;29;26;
60245;PMS5003;46107;53.356;-1.524;2023-04-08T09:07:37;32;29;
60245;PMS5003;46107;53.356;-1.524;2023-04-08T09:10:05;33;31;
60245;PMS5003;46107;53.356;-1.524;2023-04-08T09:12:33;34;30;
60245;PMS5003;46107;53.356;-1.524;2023-04-08T09:15:18;31;27;
60245;PMS5003;46107;53.356;-1.524;2023-04-08T09:17:46;32;28;
60245;PMS5003;46107;53.356;-1.524;2023-04-08T09:20:14;33;31;
60245;PMS5003;46107;53.356;-1.524;2023-04-08T09:23:02;30;29;
60245;PMS5003;46107;53.356;-1.524;2023-04-08T09:25:30;31;26;
60245;PMS5003;46107;53.356;-1.524;2023-04-08T09:27:59;34;33;
60245;PMS5003;46107;53.356;-1.524;2023-04-08T09:30:27;29;25;
60245;PMS5003;46107;53.356;-1.524;2023-04-08T09:32:58;31;28;
60245;PMS5003;46107;53.356;-1.524;2023-04-08T09:35:25;33;28;
60245;PMS5003;46107;53.356;-1.524;2023-04-08T09:37:53;31;27;
60245;PMS5003;46107;53.356;-1.524;2023-04-08T09:40:20;33;25;
60245;PMS5003;46107;53.356;-1.524;2023-04-08T09:42:50;30;24;
60245;PMS5003;46107;53.356;-1.524;2023-04-08T09:45:20;30;25;
60245;PMS5003;46107;53.356;-1.524;2023-04-08T09:47:54;29;27;
60245;PMS5003;46107;53.356;-1.524;2023-04-08T09:50:25;30;27;
60245;PMS5003;46107;53.356;-1.524;2023-04-08T09:53:00;24;21;
60245;PMS5003;46107;53.356;-1.524;2023-04-08T09:55:34;25;24;
60245;PMS5003;46107;53.356;-1.524;2023-04-08T09:58:03;24;22;
60245;PMS5003;46107;53.356;-1.524;2023-04-08T10:00:38;19;19;
60245;PMS5003;46107;53.356;-1.524;2023-04-08T10:03:09;23;20;
60245;PMS5003;46107;53.356;-1.524;2023-04-08T10:05:45;19;19;
60245;PMS5003;46107;53.356;-1.524;2023-04-08T10:08:13;22;21;
60245;PMS5003;46107;53.356;-1.524;2023-04-08T10:10:42;18;17;
60245;PMS5003;46107;53.356;-1.524;2023-04-08T10:13:10;23;21;
60245;PMS5003;46107;53.356;-1.524;2023-04-08T10:15:38;18;17;
60245;PMS5003;46107;53.356;-1.524;2023-04-08T10:18:30;20;17;
60245;PMS5003;46107;53.356;-1.524;2023-04-08T10:20:58;23;19;
60245;PMS5003;46107;53.356;-1.524;2023-04-08T10:23:52;21;21;
60245;PMS5003;46107;53.356;-1.524;2023-04-08T10:26:37;22;17;
60245;PMS5003;46107;53.356;-1.524;2023-04-08T10:29:38;24;19;
60245;PMS5003;46107;53.356;-1.524;2023-04-08T10:32:06;20;20;
60245;PMS5003;46107;53.356;-1.524;2023-04-08T10:34:33;20;16;
60245;PMS5003;46107;53.356;-1.524;2023-04-08T10:37:16;28;23;
60245;PMS5003;46107;53.356;-1.524;2023-04-08T10:39:47;22;20;
60245;PMS5003;46107;53.356;-1.524;2023-04-08T10:42:15;19;18;
60245;PMS5003;46107;53.356;-1.524;2023-04-08T10:44:43;18;15;
60245;PMS5003;46107;53.356;-1.524;2023-04-08T10:47:12;20;19;
60245;PMS5003;46107;53.356;-1.524;2023-04-08T10:49:39;24;22;
60245;PMS5003;46107;53.356;-1.524;2023-04-08T10:52:06;26;23;
60245;PMS5003;46107;53.356;-1.524;2023-04-08T10:54:34;27;25;
60245;PMS5003;46107;53.356;-1.524;2023-04-08T10:57:02;25;25;
60245;PMS5003;46107;53.356;-1.524;2023-04-08T10:59:30;24;21;
60245;PMS5003;46107;53.356;-1.524;2023-04-08T11:01:58;26;24;
60245;PMS5003;46107;53.356;-1.524;2023-04-08T11:04:25;29;23;
60245;PMS5003;46107;53.356;-1.524;2023-04-08T11:06:53;26;24;
60245;PMS5003;46107;53.356;-1.524;2023-04-08T11:09:20;24;22;
60245;PMS5003;46107;53.356;-1.524;2023-04-08T11:11:48;29;24;
60245;PMS5003;46107;53.356;-1.524;2023-04-08T11:14:17;22;22;
60245;PMS5003;46107;53.356;-1.524;2023-04-08T11:16:45;27;27;
60245;PMS5003;46107;53.356;-1.524;2023-04-08T11:19:13;25;18;
60245;PMS5003;46107;53.356;-1.524;2023-04-08T11:21:40;25;20;
60245;PMS5003;46107;53.356;-1.524;2023-04-08T11:24:13;25;24;
60245;PMS5003;46107;53.356;-1.524;2023-04-08T11:26:46;27;23;
60245;PMS5003;46107;53.356;-1.524;2023-04-08T11:29:16;28;24;
60245;PMS5003;46107;53.356;-1.524;2023-04-08T11:31:44;20;20;
60245;PMS5003;46107;53.356;-1.524;2023-04-08T11:34:12;29;28;
60245;PMS5003;46107;53.356;-1.524;2023-04-08T11:36:48;26;23;
60245;PMS5003;46107;53.356;-1.524;2023-04-08T11:39:16;31;25;
60245;PMS5003;46107;53.356;-1.524;2023-04-08T11:41:43;29;27;
60245;PMS5003;46107;53.356;-1.524;2023-04-08T11:44:11;27;26;
60245;PMS5003;46107;53.356;-1.524;2023-04-08T11:46:39;26;24;
60245;PMS5003;46107;53.356;-1.524;2023-04-08T11:49:07;31;27;
60245;PMS5003;46107;53.356;-1.524;2023-04-08T11:51:52;25;24;
60245;PMS5003;46107;53.356;-1.524;2023-04-08T11:54:28;28;23;
60245;PMS5003;46107;53.356;-1.524;2023-04-08T11:56:57;23;23;
60245;PMS5003;46107;53.356;-1.524;2023-04-08T11:59:26;29;27;
60245;PMS5003;46107;53.356;-1.524;2023-04-08T12:01:53;23;23;
60245;PMS5003;46107;53.356;-1.524;2023-04-08T12:04:21;23;23;
60245;PMS5003;46107;53.356;-1.524;2023-04-08T12:06:49;22;22;
60245;PMS5003;46107;53.356;-1.524;2023-04-08T12:09:17;23;21;
60245;PMS5003;46107;53.356;-1.524;2023-04-08T12:11:45;24;21;
60245;PMS5003;46107;53.356;-1.524;2023-04-08T12:14:12;22;21;
60245;PMS5003;46107;53.356;-1.524;2023-04-08T12:16:40;28;24;
60245;PMS5003;46107;53.356;-1.524;2023-04-08T12:19:08;23;19;
60245;PMS5003;46107;53.356;-1.524;2023-04-08T12:21:36;18;18;
60245;PMS5003;46107;53.356;-1.524;2023-04-08T12:24:05;28;25;
60245;PMS5003;46107;53.356;-1.524;2023-04-08T12:26:33;21;18;
60245;PMS5003;46107;53.356;-1.524;2023-04-08T12:29:00;18;16;
60245;PMS5003;46107;53.356;-1.524;2023-04-08T12:31:28;17;17;
60245;PMS5003;46107;53.356;-1.524;2023-04-08T12:33:55;15;15;
60245;PMS5003;46107;53.356;-1.524;2023-04-08T12:36:22;16;16;
60245;PMS5003;46107;53.356;-1.524;2023-04-08T12:38:50;16;16;
60245;PMS5003;46107;53.356;-1.524;2023-04-08T12:41:18;16;15;
60245;PMS5003;46107;53.356;-1.524;2023-04-08T12:43:46;18;16;
60245;PMS5003;46107;53.356;-1.524;2023-04-08T12:46:14;18;17;
60245;PMS5003;46107;53.356;-1.524;2023-04-08T12:48:42;18;16;
60245;PMS5003;46107;53.356;-1.524;2023-04-08T12:51:10;15;15;
60245;PMS5003;46107;53.356;-1.524;2023-04-08T12:53:38;14;14;
60245;PMS5003;46107;53.356;-1.524;2023-04-08T12:56:06;15;14;
60245;PMS5003;46107;53.356;-1.524;2023-04-08T12:58:34;14;12;
60245;PMS5003;46107;53.356;-1.524;2023-04-08T13:01:02;13;12;
60245;PMS5003;46107;53.356;-1.524;2023-04-08T13:03:29;13;13;
60245;PMS5003;46107;53.356;-1.524;2023-04-08T13:05:57;12;12;
60245;PMS5003;46107;53.356;-1.524;2023-04-08T13:08:25;10;10;
60245;PMS5003;46107;53.356;-1.524;2023-04-08T13:10:52;13;12;
60245;PMS5003;46107;53.356;-1.524;2023-04-08T13:13:20;18;17;
60245;PMS5003;46107;53.356;-1.524;2023-04-08T13:15:52;19;18;
60245;PMS5003;46107;53.356;-1.524;2023-04-08T13:18:20;17;16;
60245;PMS5003;46107;53.356;-1.524;2023-04-08T13:20:48;14;14;
60245;PMS5003;46107;53.356;-1.524;2023-04-08T13:23:16;12;12;
60245;PMS5003;46107;53.356;-1.524;2023-04-08T13:25:44;15;11;
60245;PMS5003;46107;53.356;-1.524;2023-04-08T13:28:12;11;9;
60245;PMS5003;46107;53.356;-1.524;2023-04-08T13:30:40;14;10;
60245;PMS5003;46107;53.356;-1.524;2023-04-08T13:33:07;16;13;
60245;PMS5003;46107;53.356;-1.524;2023-04-08T13:35:36;14;12;
60245;PMS5003;46107;53.356;-1.524;2023-04-08T13:38:03;13;11;
60245;PMS5003;46107;53.356;-1.524;2023-04-08T13:40:31;16;14;
60245;PMS5003;46107;53.356;-1.524;2023-04-08T13:42:58;17;14;
60245;PMS5003;46107;53.356;-1.524;2023-04-08T13:45:26;15;11;
60245;PMS5003;46107;53.356;-1.524;2023-04-08T13:47:54;18;16;
60245;PMS5003;46107;53.356;-1.524;2023-04-08T13:50:21;14;13;
60245;PMS5003;46107;53.356;-1.524;2023-04-08T13:52:49;15;14;
60245;PMS5003;46107;53.356;-1.524;2023-04-08T13:55:17;16;15;
60245;PMS5003;46107;53.356;-1.524;2023-04-08T13:57:45;12;12;
60245;PMS5003;46107;53.356;-1.524;2023-04-08T14:00:13;10;9;
60245;PMS5003;46107;53.356;-1.524;2023-04-08T14:02:41;14;12;
60245;PMS5003;46107;53.356;-1.524;2023-04-08T14:05:08;17;16;
60245;PMS5003;46107;53.356;-1.524;2023-04-08T14:07:36;13;13;
60245;PMS5003;46107;53.356;-1.524;2023-04-08T14:10:04;16;14;
60245;PMS5003;46107;53.356;-1.524;2023-04-08T14:12:33;14;14;
60245;PMS5003;46107;53.356;-1.524;2023-04-08T14:15:01;10;10;
60245;PMS5003;46107;53.356;-1.524;2023-04-08T14:17:29;12;11;
60245;PMS5003;46107;53.356;-1.524;2023-04-08T14:19:57;11;9;
60245;PMS5003;46107;53.356;-1.524;2023-04-08T14:22:25;10;9;
60245;PMS5003;46107;53.356;-1.524;2023-04-08T14:24:52;14;12;
60245;PMS5003;46107;53.356;-1.524;2023-04-08T14:27:20;13;13;
60245;PMS5003;46107;53.356;-1.524;2023-04-08T14:29:47;17;13;
60245;PMS5003;46107;53.356;-1.524;2023-04-08T14:32:15;15;12;
60245;PMS5003;46107;53.356;-1.524;2023-04-08T14:34:42;13;11;
60245;PMS5003;46107;53.356;-1.524;2023-04-08T14:37:10;14;12;
60245;PMS5003;46107;53.356;-1.524;2023-04-08T14:39:37;11;11;
60245;PMS5003;46107;53.356;-1.524;2023-04-08T14:42:04;10;10;
60245;PMS5003;46107;53.356;-1.524;2023-04-08T14:44:32;14;12;
60245;PMS5003;46107;53.356;-1.524;2023-04-08T14:47:00;11;11;
60245;PMS5003;46107;53.356;-1.524;2023-04-08T14:49:27;12;12;
60245;PMS5003;46107;53.356;-1.524;2023-04-08T14:51:55;14;13;
60245;PMS5003;46107;53.356;-1.524;2023-04-08T14:54:23;13;12;
60245;PMS5003;46107;53.356;-1.524;2023-04-08T14:56:51;18;13;
60245;PMS5003;46107;53.356;-1.524;2023-04-08T14:59:18;13;12;
60245;PMS5003;46107;53.356;-1.524;2023-04-08T15:01:45;12;10;
60245;PMS5003;46107;53.356;-1.524;2023-04-08T15:04:13;10;10;
60245;PMS5003;46107;53.356;-1.524;2023-04-08T15:06:41;15;15;
60245;PMS5003;46107;53.356;-1.524;2023-04-08T15:09:09;16;13;
60245;PMS5003;46107;53.356;-1.524;2023-04-08T15:11:36;10;10;
60245;PMS5003;46107;53.356;-1.524;2023-04-08T15:14:04;11;11;
60245;PMS5003;46107;53.356;-1.524;2023-04-08T15:16:31;13;12;
60245;PMS5003;46107;53.356;-1.524;2023-04-08T15:18:59;13;13;
60245;PMS5003;46107;53.356;-1.524;2023-04-08T15:21:26;13;13;
60245;PMS5003;46107;53.356;-1.524;2023-04-08T15:23:58;14;12;
60245;PMS5003;46107;53.356;-1.524;2023-04-08T15:26:26;10;10;
60245;PMS5003;46107;53.356;-1.524;2023-04-08T15:28:54;14;14;
60245;PMS5003;46107;53.356;-1.524;2023-04-08T15:31:22;13;12;
60245;PMS5003;46107;53.356;-1.524;2023-04-08T15:33:50;15;13;
60245;PMS5003;46107;53.356;-1.524;2023-04-08T15:36:17;14;12;
60245;PMS5003;46107;53.356;-1.524;2023-04-08T15:38:45;17;14;
60245;PMS5003;46107;53.356;-1.524;2023-04-08T15:41:14;15;12;
60245;PMS5003;46107;53.356;-1.524;2023-04-08T15:43:42;15;13;
60245;PMS5003;46107;53.356;-1.524;2023-04-08T15:46:10;16;13;
60245;PMS5003;46107;53.356;-1.524;2023-04-08T15:48:42;18;16;
60245;PMS5003;46107;53.356;-1.524;2023-04-08T15:51:09;18;17;
60245;PMS5003;46107;53.356;-1.524;2023-04-08T15:53:37;17;15;
60245;PMS5003;46107;53.356;-1.524;2023-04-08T15:56:05;13;13;
60245;PMS5003;46107;53.356;-1.524;2023-04-08T15:58:37;17;14;
60245;PMS5003;46107;53.356;-1.524;2023-04-08T16:01:04;14;12;
60245;PMS5003;46107;53.356;-1.524;2023-04-08T16:03:32;18;17;
60245;PMS5003;46107;53.356;-1.524;2023-04-08T16:05:59;18;16;
60245;PMS5003;46107;53.356;-1.524;2023-04-08T16:08:27;20;20;
60245;PMS5003;46107;53.356;-1.524;2023-04-08T16:10:58;20;20;